sensor_id;sensor_type;location;lat;lon;timestamp;P1;durP1;ratioP1;P2;durP2;ratioP2
26936;SDS011;14495;48.116;11.676;2023-07-29T00:00:51;3.95;;;2.75;;
26936;SDS011;14495;48.116;11.676;2023-07-29T00:03:17;4.28;;;3.00;;
26936;SDS011;14495;48.116;11.676;2023-07-29T00:05:42;4.80;;;2.80;;
26936;SDS011;14495;48.116;11.676;2023-07-29T00:08:07;3.70;;;2.80;;
26936;SDS011;14495;48.116;11.676;2023-07-29T00:10:35;7.22;;;3.00;;
26936;SDS011;14495;48.116;11.676;2023-07-29T00:13:02;4.65;;;2.67;;
26936;SDS011;14495;48.116;11.676;2023-07-29T00:15:28;4.05;;;2.55;;
26936;SDS011;14495;48.116;11.676;2023-07-29T00:17:53;4.22;;;2.85;;
26936;SDS011;14495;48.116;11.676;2023-07-29T00:20:18;7.70;;;3.10;;
26936;SDS011;14495;48.116;11.676;2023-07-29T00:22:44;4.85;;;3.00;;
26936;SDS011;14495;48.116;11.676;2023-07-29T00:25:09;8.00;;;2.90;;
26936;SDS011;14495;48.116;11.676;2023-07-29T00:27:35;3.90;;;2.85;;
26936;SDS011;14495;48.116;11.676;2023-07-29T00:30:00;4.13;;;2.72;;
26936;SDS011;14495;48.116;11.676;2023-07-29T00:32:27;5.18;;;3.00;;
26936;SDS011;14495;48.116;11.676;2023-07-29T00:34:54;6.05;;;3.17;;
26936;SDS011;14495;48.116;11.676;2023-07-29T00:37:19;3.72;;;3.05;;
26936;SDS011;14495;48.116;11.676;2023-07-29T00:39:45;8.27;;;3.22;;
26936;SDS011;14495;48.116;11.676;2023-07-29T00:42:10;4.45;;;3.03;;
26936;SDS011;14495;48.116;11.676;2023-07-29T00:44:35;5.90;;;2.75;;
26936;SDS011;14495;48.116;11.676;2023-07-29T00:47:02;4.28;;;2.78;;
26936;SDS011;14495;48.116;11.676;2023-07-29T00:49:29;5.40;;;3.00;;
26936;SDS011;14495;48.116;11.676;2023-07-29T00:51:55;6.00;;;3.03;;
26936;SDS011;14495;48.116;11.676;2023-07-29T00:54:23;4.38;;;2.70;;
26936;SDS011;14495;48.116;11.676;2023-07-29T00:56:48;3.97;;;2.75;;
26936;SDS011;14495;48.116;11.676;2023-07-29T00:59:14;7.25;;;2.83;;
26936;SDS011;14495;48.116;11.676;2023-07-29T01:01:40;3.95;;;2.75;;
26936;SDS011;14495;48.116;11.676;2023-07-29T01:04:05;5.22;;;3.20;;
26936;SDS011;14495;48.116;11.676;2023-07-29T01:14:21;4.82;;;2.90;;
26936;SDS011;14495;48.116;11.676;2023-07-29T01:17:05;6.15;;;2.55;;
26936;SDS011;14495;48.116;11.676;2023-07-29T01:22:35;3.80;;;2.80;;
26936;SDS011;14495;48.116;11.676;2023-07-29T01:25:02;4.95;;;2.95;;
26936;SDS011;14495;48.116;11.676;2023-07-29T01:27:28;5.40;;;2.72;;
26936;SDS011;14495;48.116;11.676;2023-07-29T01:29:54;4.68;;;3.10;;
26936;SDS011;14495;48.116;11.676;2023-07-29T01:32:43;7.55;;;3.60;;
26936;SDS011;14495;48.116;11.676;2023-07-29T01:37:48;5.47;;;3.15;;
26936;SDS011;14495;48.116;11.676;2023-07-29T01:40:16;6.57;;;3.20;;
26936;SDS011;14495;48.116;11.676;2023-07-29T01:42:43;4.88;;;3.00;;
26936;SDS011;14495;48.116;11.676;2023-07-29T01:45:10;5.32;;;3.22;;
26936;SDS011;14495;48.116;11.676;2023-07-29T01:47:36;4.10;;;3.15;;
26936;SDS011;14495;48.116;11.676;2023-07-29T01:50:03;4.80;;;3.30;;
26936;SDS011;14495;48.116;11.676;2023-07-29T01:52:29;3.22;;;2.53;;
26936;SDS011;14495;48.116;11.676;2023-07-29T01:54:54;4.00;;;2.65;;
26936;SDS011;14495;48.116;11.676;2023-07-29T01:57:19;5.82;;;3.10;;
26936;SDS011;14495;48.116;11.676;2023-07-29T01:59:47;9.00;;;2.95;;
26936;SDS011;14495;48.116;11.676;2023-07-29T02:02:12;6.82;;;2.90;;
26936;SDS011;14495;48.116;11.676;2023-07-29T02:04:38;8.98;;;3.28;;
26936;SDS011;14495;48.116;11.676;2023-07-29T02:07:03;8.35;;;2.70;;
26936;SDS011;14495;48.116;11.676;2023-07-29T02:09:31;5.88;;;3.30;;
26936;SDS011;14495;48.116;11.676;2023-07-29T02:11:56;5.65;;;3.00;;
26936;SDS011;14495;48.116;11.676;2023-07-29T02:14:22;4.82;;;3.08;;
26936;SDS011;14495;48.116;11.676;2023-07-29T02:16:48;4.28;;;3.25;;
26936;SDS011;14495;48.116;11.676;2023-07-29T02:19:14;7.55;;;3.45;;
26936;SDS011;14495;48.116;11.676;2023-07-29T02:21:39;4.35;;;3.40;;
26936;SDS011;14495;48.116;11.676;2023-07-29T02:24:05;14.88;;;3.30;;
26936;SDS011;14495;48.116;11.676;2023-07-29T02:26:30;4.53;;;2.80;;
26936;SDS011;14495;48.116;11.676;2023-07-29T02:28:56;6.10;;;2.70;;
26936;SDS011;14495;48.116;11.676;2023-07-29T02:31:21;6.68;;;3.10;;
26936;SDS011;14495;48.116;11.676;2023-07-29T02:33:48;3.58;;;2.72;;
26936;SDS011;14495;48.116;11.676;2023-07-29T02:36:14;6.35;;;2.78;;
26936;SDS011;14495;48.116;11.676;2023-07-29T02:38:40;8.38;;;3.30;;
26936;SDS011;14495;48.116;11.676;2023-07-29T02:41:07;5.25;;;2.67;;
26936;SDS011;14495;48.116;11.676;2023-07-29T02:43:34;3.22;;;2.65;;
26936;SDS011;14495;48.116;11.676;2023-07-29T02:46:00;3.78;;;2.97;;
26936;SDS011;14495;48.116;11.676;2023-07-29T02:48:26;6.15;;;3.20;;
26936;SDS011;14495;48.116;11.676;2023-07-29T02:50:53;6.40;;;3.55;;
26936;SDS011;14495;48.116;11.676;2023-07-29T02:53:18;7.22;;;2.70;;
26936;SDS011;14495;48.116;11.676;2023-07-29T02:55:44;9.65;;;3.42;;
26936;SDS011;14495;48.116;11.676;2023-07-29T02:58:11;8.73;;;3.85;;
26936;SDS011;14495;48.116;11.676;2023-07-29T03:00:36;5.32;;;3.05;;
26936;SDS011;14495;48.116;11.676;2023-07-29T03:03:02;6.60;;;3.03;;
26936;SDS011;14495;48.116;11.676;2023-07-29T03:05:27;3.85;;;2.75;;
26936;SDS011;14495;48.116;11.676;2023-07-29T03:07:53;6.45;;;2.97;;
26936;SDS011;14495;48.116;11.676;2023-07-29T03:10:18;5.68;;;2.97;;
26936;SDS011;14495;48.116;11.676;2023-07-29T03:12:44;3.55;;;2.70;;
26936;SDS011;14495;48.116;11.676;2023-07-29T03:15:09;8.40;;;3.05;;
26936;SDS011;14495;48.116;11.676;2023-07-29T03:17:35;3.88;;;3.03;;
26936;SDS011;14495;48.116;11.676;2023-07-29T03:20:00;4.93;;;2.88;;
26936;SDS011;14495;48.116;11.676;2023-07-29T03:22:26;5.50;;;3.20;;
26936;SDS011;14495;48.116;11.676;2023-07-29T03:24:51;5.47;;;3.20;;
26936;SDS011;14495;48.116;11.676;2023-07-29T03:27:16;8.15;;;3.60;;
26936;SDS011;14495;48.116;11.676;2023-07-29T03:29:45;5.75;;;2.60;;
26936;SDS011;14495;48.116;11.676;2023-07-29T03:32:11;3.42;;;2.78;;
26936;SDS011;14495;48.116;11.676;2023-07-29T03:34:36;5.43;;;2.97;;
26936;SDS011;14495;48.116;11.676;2023-07-29T03:37:01;7.90;;;2.90;;
26936;SDS011;14495;48.116;11.676;2023-07-29T03:39:27;6.90;;;3.10;;
26936;SDS011;14495;48.116;11.676;2023-07-29T03:41:52;3.55;;;2.75;;
26936;SDS011;14495;48.116;11.676;2023-07-29T03:44:18;5.20;;;2.53;;
26936;SDS011;14495;48.116;11.676;2023-07-29T03:46:44;5.00;;;2.70;;
26936;SDS011;14495;48.116;11.676;2023-07-29T03:49:10;3.72;;;2.28;;
26936;SDS011;14495;48.116;11.676;2023-07-29T03:51:35;5.88;;;2.92;;
26936;SDS011;14495;48.116;11.676;2023-07-29T03:54:01;4.53;;;2.72;;
26936;SDS011;14495;48.116;11.676;2023-07-29T03:56:26;5.88;;;2.70;;
26936;SDS011;14495;48.116;11.676;2023-07-29T03:58:52;4.18;;;2.50;;
26936;SDS011;14495;48.116;11.676;2023-07-29T04:01:18;3.40;;;2.33;;
26936;SDS011;14495;48.116;11.676;2023-07-29T04:03:44;3.63;;;2.50;;
26936;SDS011;14495;48.116;11.676;2023-07-29T04:06:11;3.53;;;2.33;;
26936;SDS011;14495;48.116;11.676;2023-07-29T04:08:39;3.10;;;2.35;;
26936;SDS011;14495;48.116;11.676;2023-07-29T04:11:06;4.32;;;2.72;;
26936;SDS011;14495;48.116;11.676;2023-07-29T04:13:31;2.63;;;2.17;;
26936;SDS011;14495;48.116;11.676;2023-07-29T04:15:59;3.33;;;2.30;;
26936;SDS011;14495;48.116;11.676;2023-07-29T04:18:24;4.03;;;2.45;;
26936;SDS011;14495;48.116;11.676;2023-07-29T04:20:49;4.75;;;2.58;;
26936;SDS011;14495;48.116;11.676;2023-07-29T04:23:15;5.47;;;2.55;;
26936;SDS011;14495;48.116;11.676;2023-07-29T04:25:43;4.03;;;2.47;;
26936;SDS011;14495;48.116;11.676;2023-07-29T04:28:08;4.30;;;2.05;;
26936;SDS011;14495;48.116;11.676;2023-07-29T04:30:34;5.05;;;2.58;;
26936;SDS011;14495;48.116;11.676;2023-07-29T04:32:59;4.30;;;2.53;;
26936;SDS011;14495;48.116;11.676;2023-07-29T04:35:24;4.53;;;2.55;;
26936;SDS011;14495;48.116;11.676;2023-07-29T04:37:50;5.95;;;2.20;;
26936;SDS011;14495;48.116;11.676;2023-07-29T04:40:15;3.67;;;2.20;;
26936;SDS011;14495;48.116;11.676;2023-07-29T04:42:40;3.55;;;2.13;;
26936;SDS011;14495;48.116;11.676;2023-07-29T04:45:06;6.60;;;2.45;;
26936;SDS011;14495;48.116;11.676;2023-07-29T04:47:31;3.65;;;2.20;;
26936;SDS011;14495;48.116;11.676;2023-07-29T04:49:57;5.13;;;2.50;;
26936;SDS011;14495;48.116;11.676;2023-07-29T04:52:22;5.25;;;2.60;;
26936;SDS011;14495;48.116;11.676;2023-07-29T04:54:48;3.33;;;2.25;;
26936;SDS011;14495;48.116;11.676;2023-07-29T04:57:13;3.05;;;2.20;;
26936;SDS011;14495;48.116;11.676;2023-07-29T04:59:38;3.13;;;2.30;;
26936;SDS011;14495;48.116;11.676;2023-07-29T05:02:06;3.63;;;2.22;;
26936;SDS011;14495;48.116;11.676;2023-07-29T05:04:34;3.10;;;2.25;;
26936;SDS011;14495;48.116;11.676;2023-07-29T05:06:59;3.50;;;2.38;;
26936;SDS011;14495;48.116;11.676;2023-07-29T05:09:24;5.70;;;2.33;;
26936;SDS011;14495;48.116;11.676;2023-07-29T05:11:50;5.22;;;2.33;;
26936;SDS011;14495;48.116;11.676;2023-07-29T05:14:17;2.85;;;2.10;;
26936;SDS011;14495;48.116;11.676;2023-07-29T05:16:43;2.75;;;1.80;;
26936;SDS011;14495;48.116;11.676;2023-07-29T05:19:09;7.60;;;2.20;;
26936;SDS011;14495;48.116;11.676;2023-07-29T05:21:34;2.70;;;1.80;;
26936;SDS011;14495;48.116;11.676;2023-07-29T05:24:00;2.67;;;1.95;;
26936;SDS011;14495;48.116;11.676;2023-07-29T05:26:28;2.47;;;1.75;;
26936;SDS011;14495;48.116;11.676;2023-07-29T05:28:53;2.63;;;2.00;;
26936;SDS011;14495;48.116;11.676;2023-07-29T05:31:21;7.13;;;1.80;;
26936;SDS011;14495;48.116;11.676;2023-07-29T05:33:47;2.20;;;1.60;;
26936;SDS011;14495;48.116;11.676;2023-07-29T05:36:12;2.70;;;1.42;;
26936;SDS011;14495;48.116;11.676;2023-07-29T05:38:40;2.65;;;1.90;;
26936;SDS011;14495;48.116;11.676;2023-07-29T05:41:06;2.75;;;1.60;;
26936;SDS011;14495;48.116;11.676;2023-07-29T05:43:31;2.28;;;1.55;;
26936;SDS011;14495;48.116;11.676;2023-07-29T05:45:59;3.10;;;1.50;;
26936;SDS011;14495;48.116;11.676;2023-07-29T05:48:24;3.20;;;1.60;;
26936;SDS011;14495;48.116;11.676;2023-07-29T05:50:52;2.50;;;1.80;;
26936;SDS011;14495;48.116;11.676;2023-07-29T05:53:17;2.45;;;1.45;;
26936;SDS011;14495;48.116;11.676;2023-07-29T05:55:43;2.63;;;1.80;;
26936;SDS011;14495;48.116;11.676;2023-07-29T05:58:08;2.08;;;1.52;;
26936;SDS011;14495;48.116;11.676;2023-07-29T06:00:36;2.25;;;1.42;;
26936;SDS011;14495;48.116;11.676;2023-07-29T06:03:01;2.35;;;1.30;;
26936;SDS011;14495;48.116;11.676;2023-07-29T06:05:26;2.35;;;1.48;;
26936;SDS011;14495;48.116;11.676;2023-07-29T06:07:52;3.75;;;1.52;;
26936;SDS011;14495;48.116;11.676;2023-07-29T06:10:17;2.65;;;1.48;;
26936;SDS011;14495;48.116;11.676;2023-07-29T06:12:43;4.38;;;2.03;;
26936;SDS011;14495;48.116;11.676;2023-07-29T06:15:11;4.10;;;2.17;;
26936;SDS011;14495;48.116;11.676;2023-07-29T06:17:37;7.03;;;2.22;;
26936;SDS011;14495;48.116;11.676;2023-07-29T06:20:03;7.43;;;1.88;;
26936;SDS011;14495;48.116;11.676;2023-07-29T06:22:29;7.88;;;2.42;;
26936;SDS011;14495;48.116;11.676;2023-07-29T06:25:02;7.18;;;2.10;;
26936;SDS011;14495;48.116;11.676;2023-07-29T06:27:27;2.95;;;1.90;;
26936;SDS011;14495;48.116;11.676;2023-07-29T06:29:53;2.70;;;1.80;;
26936;SDS011;14495;48.116;11.676;2023-07-29T06:32:18;2.90;;;2.10;;
26936;SDS011;14495;48.116;11.676;2023-07-29T06:34:44;3.22;;;2.08;;
26936;SDS011;14495;48.116;11.676;2023-07-29T06:37:09;3.15;;;1.80;;
26936;SDS011;14495;48.116;11.676;2023-07-29T06:39:34;3.47;;;2.17;;
26936;SDS011;14495;48.116;11.676;2023-07-29T06:42:00;3.20;;;1.60;;
26936;SDS011;14495;48.116;11.676;2023-07-29T06:44:27;3.40;;;1.63;;
26936;SDS011;14495;48.116;11.676;2023-07-29T06:46:52;4.15;;;1.70;;
26936;SDS011;14495;48.116;11.676;2023-07-29T06:49:18;1.80;;;1.33;;
26936;SDS011;14495;48.116;11.676;2023-07-29T06:51:45;4.78;;;1.63;;
26936;SDS011;14495;48.116;11.676;2023-07-29T06:54:10;3.92;;;1.20;;
26936;SDS011;14495;48.116;11.676;2023-07-29T06:56:35;1.73;;;1.30;;
26936;SDS011;14495;48.116;11.676;2023-07-29T06:59:02;2.28;;;1.38;;
26936;SDS011;14495;48.116;11.676;2023-07-29T07:01:30;2.53;;;1.80;;
26936;SDS011;14495;48.116;11.676;2023-07-29T07:03:55;3.45;;;1.75;;
26936;SDS011;14495;48.116;11.676;2023-07-29T07:06:23;3.70;;;2.00;;
26936;SDS011;14495;48.116;11.676;2023-07-29T07:08:51;3.72;;;2.20;;
26936;SDS011;14495;48.116;11.676;2023-07-29T07:11:17;5.63;;;2.10;;
26936;SDS011;14495;48.116;11.676;2023-07-29T07:13:43;4.15;;;2.17;;
26936;SDS011;14495;48.116;11.676;2023-07-29T07:16:08;3.78;;;2.05;;
26936;SDS011;14495;48.116;11.676;2023-07-29T07:18:34;3.08;;;2.00;;
26936;SDS011;14495;48.116;11.676;2023-07-29T07:20:59;3.97;;;2.20;;
26936;SDS011;14495;48.116;11.676;2023-07-29T07:23:25;4.28;;;2.35;;
26936;SDS011;14495;48.116;11.676;2023-07-29T07:25:50;5.03;;;2.50;;
26936;SDS011;14495;48.116;11.676;2023-07-29T07:28:16;4.30;;;2.22;;
26936;SDS011;14495;48.116;11.676;2023-07-29T07:30:42;5.45;;;2.55;;
26936;SDS011;14495;48.116;11.676;2023-07-29T07:33:08;2.97;;;2.08;;
26936;SDS011;14495;48.116;11.676;2023-07-29T07:35:33;6.47;;;2.30;;
26936;SDS011;14495;48.116;11.676;2023-07-29T07:37:59;2.60;;;2.03;;
26936;SDS011;14495;48.116;11.676;2023-07-29T07:40:28;3.17;;;2.22;;
26936;SDS011;14495;48.116;11.676;2023-07-29T07:43:06;3.60;;;2.28;;
26936;SDS011;14495;48.116;11.676;2023-07-29T07:45:35;4.22;;;2.20;;
26936;SDS011;14495;48.116;11.676;2023-07-29T07:48:01;3.28;;;2.25;;
26936;SDS011;14495;48.116;11.676;2023-07-29T07:50:29;4.65;;;2.30;;
26936;SDS011;14495;48.116;11.676;2023-07-29T07:52:55;4.75;;;2.28;;
26936;SDS011;14495;48.116;11.676;2023-07-29T07:55:20;5.30;;;2.20;;
26936;SDS011;14495;48.116;11.676;2023-07-29T07:57:45;6.30;;;2.28;;
26936;SDS011;14495;48.116;11.676;2023-07-29T08:00:12;2.63;;;1.98;;
26936;SDS011;14495;48.116;11.676;2023-07-29T08:02:40;3.58;;;1.95;;
26936;SDS011;14495;48.116;11.676;2023-07-29T08:05:05;3.85;;;2.10;;
26936;SDS011;14495;48.116;11.676;2023-07-29T08:07:31;3.03;;;2.00;;
26936;SDS011;14495;48.116;11.676;2023-07-29T08:09:58;4.18;;;2.13;;
26936;SDS011;14495;48.116;11.676;2023-07-29T08:12:24;3.30;;;2.10;;
26936;SDS011;14495;48.116;11.676;2023-07-29T08:14:50;2.78;;;1.92;;
26936;SDS011;14495;48.116;11.676;2023-07-29T08:17:15;4.82;;;2.72;;
26936;SDS011;14495;48.116;11.676;2023-07-29T08:19:40;5.75;;;2.25;;
26936;SDS011;14495;48.116;11.676;2023-07-29T08:22:06;4.45;;;2.25;;
26936;SDS011;14495;48.116;11.676;2023-07-29T08:24:31;4.53;;;2.70;;
26936;SDS011;14495;48.116;11.676;2023-07-29T08:26:56;2.88;;;2.40;;
26936;SDS011;14495;48.116;11.676;2023-07-29T08:29:22;2.72;;;1.90;;
26936;SDS011;14495;48.116;11.676;2023-07-29T08:31:51;4.30;;;2.28;;
26936;SDS011;14495;48.116;11.676;2023-07-29T08:34:20;4.82;;;2.22;;
26936;SDS011;14495;48.116;11.676;2023-07-29T08:36:48;2.80;;;2.17;;
26936;SDS011;14495;48.116;11.676;2023-07-29T08:39:13;3.30;;;2.45;;
26936;SDS011;14495;48.116;11.676;2023-07-29T08:44:23;3.10;;;2.50;;
26936;SDS011;14495;48.116;11.676;2023-07-29T08:46:51;7.05;;;2.70;;
26936;SDS011;14495;48.116;11.676;2023-07-29T08:49:19;2.70;;;2.13;;
26936;SDS011;14495;48.116;11.676;2023-07-29T08:51:46;4.50;;;2.67;;
26936;SDS011;14495;48.116;11.676;2023-07-29T08:54:13;4.80;;;2.60;;
26936;SDS011;14495;48.116;11.676;2023-07-29T08:56:43;5.15;;;2.33;;
26936;SDS011;14495;48.116;11.676;2023-07-29T08:59:11;4.35;;;2.42;;
26936;SDS011;14495;48.116;11.676;2023-07-29T09:01:39;2.95;;;2.10;;
26936;SDS011;14495;48.116;11.676;2023-07-29T09:04:06;3.00;;;2.30;;
26936;SDS011;14495;48.116;11.676;2023-07-29T09:06:31;2.75;;;2.22;;
26936;SDS011;14495;48.116;11.676;2023-07-29T09:09:00;3.08;;;2.28;;
26936;SDS011;14495;48.116;11.676;2023-07-29T09:11:25;4.78;;;2.40;;
26936;SDS011;14495;48.116;11.676;2023-07-29T09:13:52;3.13;;;2.22;;
26936;SDS011;14495;48.116;11.676;2023-07-29T09:16:18;3.55;;;2.50;;
26936;SDS011;14495;48.116;11.676;2023-07-29T09:18:47;4.40;;;2.78;;
26936;SDS011;14495;48.116;11.676;2023-07-29T09:21:13;2.80;;;2.33;;
26936;SDS011;14495;48.116;11.676;2023-07-29T09:23:43;3.38;;;2.30;;
26936;SDS011;14495;48.116;11.676;2023-07-29T09:26:12;3.35;;;2.28;;
26936;SDS011;14495;48.116;11.676;2023-07-29T09:28:40;4.00;;;2.40;;
26936;SDS011;14495;48.116;11.676;2023-07-29T09:31:06;5.20;;;2.30;;
26936;SDS011;14495;48.116;11.676;2023-07-29T09:33:35;2.38;;;1.95;;
26936;SDS011;14495;48.116;11.676;2023-07-29T09:36:02;3.08;;;2.20;;
26936;SDS011;14495;48.116;11.676;2023-07-29T09:38:36;2.75;;;2.00;;
26936;SDS011;14495;48.116;11.676;2023-07-29T09:41:03;3.33;;;2.50;;
26936;SDS011;14495;48.116;11.676;2023-07-29T09:43:29;3.60;;;2.35;;
26936;SDS011;14495;48.116;11.676;2023-07-29T09:45:59;2.85;;;2.05;;
26936;SDS011;14495;48.116;11.676;2023-07-29T09:48:26;2.53;;;1.83;;
26936;SDS011;14495;48.116;11.676;2023-07-29T09:50:51;5.50;;;2.83;;
26936;SDS011;14495;48.116;11.676;2023-07-29T09:53:20;5.82;;;2.45;;
26936;SDS011;14495;48.116;11.676;2023-07-29T09:55:50;3.38;;;2.47;;
26936;SDS011;14495;48.116;11.676;2023-07-29T09:58:27;4.20;;;2.47;;
26936;SDS011;14495;48.116;11.676;2023-07-29T10:00:53;3.90;;;2.70;;
26936;SDS011;14495;48.116;11.676;2023-07-29T10:03:21;3.30;;;2.42;;
26936;SDS011;14495;48.116;11.676;2023-07-29T10:05:47;4.20;;;2.58;;
26936;SDS011;14495;48.116;11.676;2023-07-29T10:08:13;3.80;;;2.40;;
26936;SDS011;14495;48.116;11.676;2023-07-29T10:10:42;2.67;;;2.20;;
26936;SDS011;14495;48.116;11.676;2023-07-29T10:13:08;4.68;;;2.90;;
26936;SDS011;14495;48.116;11.676;2023-07-29T10:15:36;3.33;;;2.58;;
26936;SDS011;14495;48.116;11.676;2023-07-29T10:18:02;3.25;;;2.65;;
26936;SDS011;14495;48.116;11.676;2023-07-29T10:20:30;3.28;;;2.40;;
26936;SDS011;14495;48.116;11.676;2023-07-29T10:22:59;5.10;;;2.60;;
26936;SDS011;14495;48.116;11.676;2023-07-29T10:25:29;4.47;;;2.60;;
26936;SDS011;14495;48.116;11.676;2023-07-29T10:28:05;7.45;;;2.45;;
26936;SDS011;14495;48.116;11.676;2023-07-29T10:30:32;3.67;;;2.50;;
26936;SDS011;14495;48.116;11.676;2023-07-29T10:32:59;4.38;;;2.58;;
26936;SDS011;14495;48.116;11.676;2023-07-29T10:35:27;2.95;;;2.55;;
26936;SDS011;14495;48.116;11.676;2023-07-29T10:37:56;3.13;;;2.20;;
26936;SDS011;14495;48.116;11.676;2023-07-29T10:40:21;3.65;;;2.53;;
26936;SDS011;14495;48.116;11.676;2023-07-29T10:43:01;2.90;;;2.30;;
26936;SDS011;14495;48.116;11.676;2023-07-29T10:45:43;3.20;;;2.10;;
26936;SDS011;14495;48.116;11.676;2023-07-29T10:48:12;3.67;;;2.50;;
26936;SDS011;14495;48.116;11.676;2023-07-29T10:53:55;3.75;;;2.63;;
26936;SDS011;14495;48.116;11.676;2023-07-29T10:56:26;3.00;;;2.55;;
26936;SDS011;14495;48.116;11.676;2023-07-29T10:58:55;3.70;;;2.50;;
26936;SDS011;14495;48.116;11.676;2023-07-29T11:01:29;3.58;;;2.40;;
26936;SDS011;14495;48.116;11.676;2023-07-29T11:09:41;2.95;;;2.13;;
26936;SDS011;14495;48.116;11.676;2023-07-29T11:17:43;3.38;;;2.60;;
26936;SDS011;14495;48.116;11.676;2023-07-29T11:20:28;3.47;;;2.63;;
26936;SDS011;14495;48.116;11.676;2023-07-29T11:22:55;4.35;;;2.50;;
26936;SDS011;14495;48.116;11.676;2023-07-29T11:25:26;3.28;;;2.92;;
26936;SDS011;14495;48.116;11.676;2023-07-29T11:27:54;4.03;;;2.70;;
26936;SDS011;14495;48.116;11.676;2023-07-29T11:30:21;4.60;;;2.72;;
26936;SDS011;14495;48.116;11.676;2023-07-29T11:32:54;3.35;;;2.13;;
26936;SDS011;14495;48.116;11.676;2023-07-29T11:35:20;2.63;;;1.70;;
26936;SDS011;14495;48.116;11.676;2023-07-29T11:37:50;7.32;;;1.92;;
26936;SDS011;14495;48.116;11.676;2023-07-29T11:40:20;6.28;;;1.67;;
26936;SDS011;14495;48.116;11.676;2023-07-29T11:42:49;1.92;;;1.70;;
26936;SDS011;14495;48.116;11.676;2023-07-29T11:45:16;3.40;;;1.60;;
26936;SDS011;14495;48.116;11.676;2023-07-29T11:47:44;2.83;;;1.70;;
26936;SDS011;14495;48.116;11.676;2023-07-29T11:50:12;4.80;;;1.60;;
26936;SDS011;14495;48.116;11.676;2023-07-29T11:52:40;1.95;;;1.60;;
26936;SDS011;14495;48.116;11.676;2023-07-29T11:55:06;2.40;;;1.70;;
26936;SDS011;14495;48.116;11.676;2023-07-29T11:57:33;2.22;;;1.58;;
26936;SDS011;14495;48.116;11.676;2023-07-29T12:00:03;2.92;;;1.63;;
26936;SDS011;14495;48.116;11.676;2023-07-29T12:02:31;3.88;;;2.08;;
26936;SDS011;14495;48.116;11.676;2023-07-29T12:04:58;3.17;;;2.00;;
26936;SDS011;14495;48.116;11.676;2023-07-29T12:07:24;3.22;;;2.08;;
26936;SDS011;14495;48.116;11.676;2023-07-29T12:09:50;7.28;;;2.03;;
26936;SDS011;14495;48.116;11.676;2023-07-29T12:12:16;1.90;;;1.67;;
26936;SDS011;14495;48.116;11.676;2023-07-29T12:14:43;4.22;;;2.28;;
26936;SDS011;14495;48.116;11.676;2023-07-29T12:17:11;4.57;;;2.35;;
26936;SDS011;14495;48.116;11.676;2023-07-29T12:19:37;2.55;;;2.00;;
26936;SDS011;14495;48.116;11.676;2023-07-29T12:22:04;2.80;;;2.10;;
26936;SDS011;14495;48.116;11.676;2023-07-29T12:24:31;3.28;;;2.00;;
26936;SDS011;14495;48.116;11.676;2023-07-29T12:26:58;3.45;;;2.40;;
26936;SDS011;14495;48.116;11.676;2023-07-29T12:29:24;4.78;;;2.33;;
26936;SDS011;14495;48.116;11.676;2023-07-29T12:32:00;2.58;;;2.28;;
26936;SDS011;14495;48.116;11.676;2023-07-29T12:34:27;2.75;;;2.08;;
26936;SDS011;14495;48.116;11.676;2023-07-29T12:36:55;3.22;;;2.13;;
26936;SDS011;14495;48.116;11.676;2023-07-29T12:39:25;3.75;;;2.10;;
26936;SDS011;14495;48.116;11.676;2023-07-29T12:41:53;2.35;;;2.15;;
26936;SDS011;14495;48.116;11.676;2023-07-29T12:44:22;5.10;;;2.90;;
26936;SDS011;14495;48.116;11.676;2023-07-29T12:46:54;2.88;;;2.45;;
26936;SDS011;14495;48.116;11.676;2023-07-29T12:49:19;4.60;;;2.50;;
26936;SDS011;14495;48.116;11.676;2023-07-29T12:51:45;4.40;;;2.58;;
26936;SDS011;14495;48.116;11.676;2023-07-29T12:54:11;4.07;;;2.55;;
26936;SDS011;14495;48.116;11.676;2023-07-29T12:56:37;3.22;;;2.17;;
26936;SDS011;14495;48.116;11.676;2023-07-29T12:59:07;3.87;;;2.20;;
26936;SDS011;14495;48.116;11.676;2023-07-29T13:01:33;4.18;;;2.35;;
26936;SDS011;14495;48.116;11.676;2023-07-29T13:03:58;3.55;;;2.25;;
26936;SDS011;14495;48.116;11.676;2023-07-29T13:06:23;3.25;;;1.92;;
26936;SDS011;14495;48.116;11.676;2023-07-29T13:08:49;3.15;;;1.83;;
26936;SDS011;14495;48.116;11.676;2023-07-29T13:11:15;1.85;;;1.55;;
26936;SDS011;14495;48.116;11.676;2023-07-29T13:13:41;3.05;;;1.48;;
26936;SDS011;14495;48.116;11.676;2023-07-29T13:16:06;2.60;;;1.70;;
26936;SDS011;14495;48.116;11.676;2023-07-29T13:18:32;3.72;;;2.78;;
26936;SDS011;14495;48.116;11.676;2023-07-29T13:21:01;5.78;;;3.10;;
26936;SDS011;14495;48.116;11.676;2023-07-29T13:23:27;8.00;;;3.08;;
26936;SDS011;14495;48.116;11.676;2023-07-29T13:25:54;6.28;;;3.22;;
26936;SDS011;14495;48.116;11.676;2023-07-29T13:28:22;11.57;;;3.60;;
26936;SDS011;14495;48.116;11.676;2023-07-29T13:30:48;5.97;;;3.22;;
26936;SDS011;14495;48.116;11.676;2023-07-29T13:33:13;4.57;;;3.00;;
26936;SDS011;14495;48.116;11.676;2023-07-29T13:35:39;14.75;;;3.55;;
26936;SDS011;14495;48.116;11.676;2023-07-29T13:38:04;7.28;;;3.90;;
26936;SDS011;14495;48.116;11.676;2023-07-29T13:40:34;5.53;;;3.65;;
26936;SDS011;14495;48.116;11.676;2023-07-29T13:42:59;5.97;;;4.10;;
26936;SDS011;14495;48.116;11.676;2023-07-29T13:45:25;6.50;;;3.55;;
26936;SDS011;14495;48.116;11.676;2023-07-29T13:47:52;7.32;;;3.53;;
26936;SDS011;14495;48.116;11.676;2023-07-29T13:50:18;4.93;;;3.40;;
26936;SDS011;14495;48.116;11.676;2023-07-29T13:52:44;8.80;;;3.88;;
26936;SDS011;14495;48.116;11.676;2023-07-29T13:55:10;10.38;;;4.20;;
26936;SDS011;14495;48.116;11.676;2023-07-29T13:57:39;4.75;;;3.45;;
26936;SDS011;14495;48.116;11.676;2023-07-29T14:00:07;7.03;;;3.73;;
26936;SDS011;14495;48.116;11.676;2023-07-29T14:02:33;7.60;;;4.13;;
26936;SDS011;14495;48.116;11.676;2023-07-29T14:04:59;8.00;;;4.40;;
26936;SDS011;14495;48.116;11.676;2023-07-29T14:07:24;7.57;;;4.35;;
26936;SDS011;14495;48.116;11.676;2023-07-29T14:09:53;5.93;;;3.25;;
26936;SDS011;14495;48.116;11.676;2023-07-29T14:12:18;5.65;;;3.78;;
26936;SDS011;14495;48.116;11.676;2023-07-29T14:14:43;5.18;;;3.30;;
26936;SDS011;14495;48.116;11.676;2023-07-29T14:17:09;8.05;;;4.80;;
26936;SDS011;14495;48.116;11.676;2023-07-29T14:19:35;6.50;;;3.60;;
26936;SDS011;14495;48.116;11.676;2023-07-29T14:22:00;7.10;;;3.95;;
26936;SDS011;14495;48.116;11.676;2023-07-29T14:24:26;4.25;;;2.88;;
26936;SDS011;14495;48.116;11.676;2023-07-29T14:26:51;3.63;;;2.88;;
26936;SDS011;14495;48.116;11.676;2023-07-29T14:29:16;4.28;;;3.05;;
26936;SDS011;14495;48.116;11.676;2023-07-29T14:31:44;5.05;;;3.17;;
26936;SDS011;14495;48.116;11.676;2023-07-29T14:34:13;2.92;;;2.38;;
26936;SDS011;14495;48.116;11.676;2023-07-29T14:36:38;4.47;;;3.13;;
26936;SDS011;14495;48.116;11.676;2023-07-29T14:39:04;4.82;;;3.20;;
26936;SDS011;14495;48.116;11.676;2023-07-29T14:41:30;4.90;;;3.13;;
26936;SDS011;14495;48.116;11.676;2023-07-29T14:43:56;9.00;;;3.22;;
26936;SDS011;14495;48.116;11.676;2023-07-29T14:46:21;4.90;;;2.60;;
26936;SDS011;14495;48.116;11.676;2023-07-29T14:48:46;5.28;;;2.85;;
26936;SDS011;14495;48.116;11.676;2023-07-29T14:51:12;4.60;;;3.22;;
26936;SDS011;14495;48.116;11.676;2023-07-29T14:53:37;4.20;;;3.05;;
26936;SDS011;14495;48.116;11.676;2023-07-29T14:56:03;6.82;;;4.25;;
26936;SDS011;14495;48.116;11.676;2023-07-29T14:58:29;7.63;;;3.47;;
26936;SDS011;14495;48.116;11.676;2023-07-29T15:00:55;6.60;;;3.67;;